Time,TemperatureF,DewpointF,PressureIn,WindDirection,WindDirectionDegrees,WindSpeedMPH,WindSpeedGustMPH,Humidity,HourlyPrecipIn,Conditions,Clouds,dailyrainin,SoftwareType,DateUTC
2013-07-02 00:34:00,61.0,49.0,30.37,NW,324,4.0,6.0,65,-99.99,,,-99.99,,2013-07-02 06:34:00,
2013-07-02 00:43:00,61.0,49.0,30.37,NW,324,4.0,6.0,65,-99.99,,,-99.99,,2013-07-02 06:43:00,
2013-07-02 01:11:00,62.0,48.0,30.36,WNW,301,8.0,10.0,60,-99.99,,,-99.99,,2013-07-02 07:11:00,
2013-07-02 01:34:00,62.0,47.0,30.36,WSW,253,7.0,10.0,60,-99.99,,,-99.99,,2013-07-02 07:34:00,
2013-07-02 02:33:00,62.0,47.0,30.34,WSW,251,10.0,17.0,58,-99.99,,,-99.99,,2013-07-02 08:33:00,
2013-07-02 02:53:00,62.0,46.0,30.33,WSW,248,11.0,17.0,57,-99.99,,,-99.99,,2013-07-02 08:53:00,
2013-07-02 03:11:00,62.0,45.0,30.32,WSW,244,13.0,20.0,54,-99.99,,,-99.99,,2013-07-02 09:11:00,
2013-07-02 03:33:00,61.0,45.0,30.32,WSW,249,10.0,16.0,55,-99.99,,,-99.99,,2013-07-02 09:33:00,
2013-07-02 03:43:00,61.0,45.0,30.32,WSW,249,10.0,16.0,55,-99.99,,,-99.99,,2013-07-02 09:43:00,
2013-07-02 04:22:00,61.0,44.0,30.31,SW,235,9.0,16.0,53,-99.99,,,-99.99,,2013-07-02 10:22:00,
2013-07-02 04:33:00,61.0,44.0,30.31,SW,235,9.0,16.0,53,-99.99,,,-99.99,,2013-07-02 10:33:00,
2013-07-02 05:33:00,57.0,45.0,30.32,SE,136,3.0,5.0,66,-99.99,,,-99.99,,2013-07-02 11:33:00,
2013-07-02 06:33:00,58.0,44.0,30.33,South,176,3.0,6.0,61,-99.99,,,-99.99,,2013-07-02 12:33:00,
2013-07-02 07:11:00,59.0,46.0,30.32,SE,124,2.0,4.0,63,-99.99,,,-99.99,,2013-07-02 13:11:00,
2013-07-02 07:34:00,59.0,47.0,30.33,SSE,168,3.0,5.0,65,-99.99,,,-99.99,,2013-07-02 13:34:00,
2013-07-02 08:11:00,61.0,48.0,30.33,East,83,2.0,5.0,62,-99.99,,,-99.99,,2013-07-02 14:11:00,
2013-07-02 08:22:00,61.0,48.0,30.33,East,83,2.0,5.0,62,-99.99,,,-99.99,,2013-07-02 14:22:00,
2013-07-02 08:33:00,61.0,48.0,30.33,East,83,2.0,5.0,62,-99.99,,,-99.99,,2013-07-02 14:33:00,
2013-07-02 08:53:00,64.0,47.0,30.33,East,94,1.0,5.0,54,-99.99,,,-99.99,,2013-07-02 14:53:00,
2013-07-02 09:02:00,64.0,47.0,30.33,East,94,1.0,5.0,54,-99.99,,,-99.99,,2013-07-02 15:02:00,
2013-07-02 09:33:00,64.0,49.0,30.34,East,89,3.0,8.0,57,-99.99,,,-99.99,,2013-07-02 15:33:00,
2013-07-02 09:53:00,63.0,48.0,30.34,ESE,110,4.0,6.0,57,-99.99,,,-99.99,,2013-07-02 15:53:00,
2013-07-02 10:33:00,65.0,48.0,30.33,NNE,20,4.0,9.0,55,-99.99,,,-99.99,,2013-07-02 16:33:00,
2013-07-02 11:02:00,67.0,49.0,30.33,NE,34,5.0,9.0,51,-99.99,,,-99.99,,2013-07-02 17:02:00,
2013-07-02 11:11:00,67.0,49.0,30.33,NE,34,5.0,9.0,51,-99.99,,,-99.99,,2013-07-02 17:11:00,
2013-07-02 11:22:00,67.0,49.0,30.33,NE,34,5.0,9.0,51,-99.99,,,-99.99,,2013-07-02 17:22:00,
2013-07-02 11:33:00,67.0,49.0,30.33,NE,34,5.0,9.0,51,-99.99,,,-99.99,,2013-07-02 17:33:00,
2013-07-02 12:23:00,71.0,48.0,30.33,NE,46,4.0,9.0,44,-99.99,,,-99.99,,2013-07-02 18:23:00,
2013-07-02 12:34:00,71.0,48.0,30.33,NE,46,4.0,9.0,44,-99.99,,,-99.99,,2013-07-02 18:34:00,
2013-07-02 12:53:00,70.0,49.0,30.32,NE,34,6.0,12.0,47,-99.99,,,-99.99,,2013-07-02 18:53:00,
2013-07-02 14:02:00,71.0,44.0,30.31,NE,46,11.0,17.0,38,-99.99,,,-99.99,,2013-07-02 20:02:00,
2013-07-02 14:33:00,74.0,45.0,30.30,SSE,147,3.0,11.0,36,-99.99,,,-99.99,,2013-07-02 20:33:00,
2013-07-02 15:02:00,75.0,45.0,30.29,East,91,5.0,17.0,35,-99.99,,,-99.99,,2013-07-02 21:02:00,
2013-07-02 15:33:00,74.0,45.0,30.28,SE,134,5.0,10.0,35,-99.99,,,-99.99,,2013-07-02 21:33:00,
2013-07-02 16:01:00,74.0,45.0,30.27,NE,46,3.0,9.0,36,-99.99,,,-99.99,,2013-07-02 22:01:00,
2013-07-02 16:11:00,74.0,45.0,30.27,NE,46,3.0,9.0,36,-99.99,,,-99.99,,2013-07-02 22:11:00,
2013-07-02 16:22:00,74.0,45.0,30.27,NE,46,3.0,9.0,36,-99.99,,,-99.99,,2013-07-02 22:22:00,
2013-07-02 16:43:00,75.0,45.0,30.27,East,85,5.0,15.0,34,-99.99,,,-99.99,,2013-07-02 22:43:00,
2013-07-02 16:53:00,75.0,45.0,30.27,East,85,5.0,15.0,34,-99.99,,,-99.99,,2013-07-02 22:53:00,
2013-07-02 17:33:00,75.0,44.0,30.25,East,90,5.0,10.0,33,-99.99,,,-99.99,,2013-07-02 23:33:00,
2013-07-02 18:22:00,74.0,44.0,30.25,ENE,59,7.0,16.0,34,-99.99,,,-99.99,,2013-07-03 00:22:00,
2013-07-02 18:33:00,74.0,44.0,30.25,ENE,59,7.0,16.0,34,-99.99,,,-99.99,,2013-07-03 00:33:00,
2013-07-02 18:52:00,74.0,44.0,30.25,East,83,4.0,9.0,34,-99.99,,,-99.99,,2013-07-03 00:52:00,
2013-07-02 19:11:00,73.0,43.0,30.26,NNE,32,5.0,9.0,34,-99.99,,,-99.99,,2013-07-03 01:11:00,
2013-07-02 19:33:00,74.0,43.0,30.26,East,84,3.0,9.0,33,-99.99,,,-99.99,,2013-07-03 01:33:00,
2013-07-02 20:25:00,72.0,43.0,30.26,NE,45,3.0,7.0,34,-99.99,,,-99.99,,2013-07-03 02:25:00,
2013-07-02 20:37:00,72.0,43.0,30.26,NE,45,3.0,7.0,34,-99.99,,,-99.99,,2013-07-03 02:37:00,
2013-07-02 20:44:00,72.0,43.0,30.26,NE,45,3.0,7.0,34,-99.99,,,-99.99,,2013-07-03 02:44:00,
2013-07-02 20:54:00,72.0,43.0,30.26,NE,45,3.0,7.0,34,-99.99,,,-99.99,,2013-07-03 02:54:00,
2013-07-02 21:25:00,70.0,42.0,30.25,West,281,2.0,4.0,36,-99.99,,,-99.99,,2013-07-03 03:25:00,
2013-07-02 21:35:00,70.0,42.0,30.25,West,281,2.0,4.0,36,-99.99,,,-99.99,,2013-07-03 03:35:00,
2013-07-02 22:33:00,69.0,41.0,30.26,WSW,255,3.0,4.0,36,-99.99,,,-99.99,,2013-07-03 04:33:00,
2013-07-02 22:43:00,69.0,41.0,30.26,WSW,255,3.0,4.0,36,-99.99,,,-99.99,,2013-07-03 04:43:00,
2013-07-02 23:11:00,68.0,41.0,30.26,SW,224,5.0,9.0,37,-99.99,,,-99.99,,2013-07-03 05:11:00,
2013-07-02 23:36:00,68.0,42.0,30.25,SW,232,6.0,9.0,40,-99.99,,,-99.99,,2013-07-03 05:36:00,